KDTW/DTW METAR and TAF weather

Enter ICAO airport designator
Station Type Date Time Source
KDTW METAR 2018/01/22 19:53 UTC NOAA

KDTW 221953Z 19012KT 8SM -RA BKN050 OVC090 12/09 A2967 RMK AO2 RAB02 SLP049 P0003 T01170089


Station Type Date Time Source
KDTW Decoded METAR 2018/01/22 19:53 UTC NOAA

DETROIT METROPOLITAN, MI, United States (KDTW) 42-14N 83-20W 195M
Jan 22, 2018 - 02:53 PM EST / 2018.01.22 1953 UTC
Wind: from the S (190 degrees) at 14 MPH (12 KT):0
Visibility: 8 mile(s):0
Sky conditions: overcast
Weather: light rain
Precipitation last hour: 0.03 inches
Temperature: 53.1 F (11.7 C)
Dew Point: 48.0 F (8.9 C)
Relative Humidity: 82%
Pressure (altimeter): 29.67 in. Hg (1004 hPa)
ob: KDTW 221953Z 19012KT 8SM -RA BKN050 OVC090 12/09 A2967 RMK AO2 RAB02 SLP049 P0003 T01170089
cycle: 20

Station Type Date Time Source
KDTW TAF 2018/01/22 19:22 UTC NOAA

TAF
AMD KDTW 221920Z 2219/2324 18012G22KT P6SM -SHRA BKN060 OVC100
FM222200 18010G18KT 5SM -SHRA BR BKN015 BKN040
FM230600 20008KT P6SM BKN080
FM231300 23012KT 5SM -SHRA BR OVC030
FM231800 27018G25KT P6SM -SNRA OVC040


Example: see airport list